createdAt,value
2023-03-21T00:01:27.029Z,74.17
2023-03-21T00:03:55.110Z,73.93
2023-03-21T00:06:23.063Z,74.50
2023-03-21T00:08:51.140Z,72.20
2023-03-21T00:11:21.694Z,72.67
2023-03-21T00:13:49.660Z,68.93
2023-03-21T00:16:28.902Z,76.73
2023-03-21T00:18:58.387Z,73.67
2023-03-21T00:22:05.429Z,68.27
2023-03-21T00:24:22.046Z,71.33
2023-03-21T00:26:51.620Z,66.23
2023-03-21T00:29:19.920Z,70.80
2023-03-21T00:31:47.975Z,70.97
2023-03-21T00:34:17.645Z,71.80
2023-03-21T00:36:50.758Z,68.50
2023-03-21T00:39:18.787Z,73.53
2023-03-21T00:41:46.808Z,68.17
2023-03-21T00:44:16.248Z,67.43
2023-03-21T00:46:54.479Z,62.43
2023-03-21T00:49:29.395Z,67.30
2023-03-21T00:52:02.272Z,66.17
2023-03-21T00:54:37.821Z,61.50
2023-03-21T00:57:05.796Z,63.97
2023-03-21T00:59:35.115Z,68.53
2023-03-21T01:02:07.256Z,67.30
2023-03-21T01:04:35.682Z,66.07
2023-03-21T01:07:03.665Z,63.07
2023-03-21T01:09:31.700Z,68.03
2023-03-21T01:11:59.749Z,67.10
2023-03-21T01:14:27.788Z,66.43
2023-03-21T01:16:57.192Z,67.57
2023-03-21T01:19:44.309Z,72.63
2023-03-21T01:22:16.400Z,70.67
2023-03-21T01:24:53.810Z,66.20
2023-03-21T01:27:24.902Z,71.30
2023-03-21T01:29:52.880Z,61.60
2023-03-21T01:32:22.215Z,59.67
2023-03-21T01:34:50.376Z,60.50
2023-03-21T01:37:19.981Z,61.87
2023-03-21T01:39:47.988Z,57.80
2023-03-21T01:42:16.368Z,60.73
2023-03-21T01:44:54.760Z,60.30
2023-03-21T01:47:24.202Z,59.03
2023-03-21T01:49:54.819Z,61.43
2023-03-21T01:52:36.579Z,61.17
2023-03-21T01:55:11.819Z,57.80
2023-03-21T01:57:49.480Z,64.77
2023-03-21T02:00:29.478Z,59.17
2023-03-21T02:03:11.598Z,63.83
2023-03-21T02:05:52.175Z,61.33
2023-03-21T02:08:22.256Z,64.97
2023-03-21T02:10:52.951Z,60.47
2023-03-21T02:13:20.941Z,61.77
2023-03-21T02:15:59.105Z,60.80
2023-03-21T02:18:38.353Z,67.37
2023-03-21T02:21:43.423Z,67.73
2023-03-21T02:24:37.766Z,62.00
2023-03-21T02:27:12.890Z,62.70
2023-03-21T02:30:05.604Z,68.17
2023-03-21T02:32:50.851Z,65.77
2023-03-21T02:35:39.120Z,66.87
2023-03-21T02:38:16.826Z,70.43
2023-03-21T02:40:51.284Z,68.63
2023-03-21T02:43:29.041Z,69.33
2023-03-21T02:46:03.290Z,73.17
2023-03-21T02:48:49.810Z,74.33
2023-03-21T02:51:22.965Z,71.43
2023-03-21T02:54:23.743Z,68.70
2023-03-21T02:56:47.083Z,72.33
2023-03-21T02:59:16.727Z,71.97
2023-03-21T03:01:45.080Z,70.30
2023-03-21T03:04:21.010Z,70.23
2023-03-21T03:07:11.654Z,69.93
2023-03-21T03:09:56.173Z,66.57
2023-03-21T03:12:35.197Z,66.73
2023-03-21T03:15:12.807Z,66.30
2023-03-21T03:17:51.551Z,64.27
2023-03-21T03:20:38.953Z,63.00
2023-03-21T03:23:17.204Z,61.50
2023-03-21T03:25:52.591Z,60.53
2023-03-21T03:28:25.948Z,60.27
2023-03-21T03:31:08.494Z,58.20
2023-03-21T03:33:39.711Z,61.83
2023-03-21T03:36:25.051Z,60.30
2023-03-21T03:38:58.925Z,57.97
2023-03-21T03:41:31.957Z,58.43
2023-03-21T03:44:09.429Z,60.20
2023-03-21T03:46:44.963Z,61.63
2023-03-21T03:49:18.197Z,61.20
2023-03-21T03:51:53.480Z,61.73
2023-03-21T03:54:26.829Z,61.07
2023-03-21T03:56:56.607Z,56.10
2023-03-21T03:59:25.199Z,59.47
2023-03-21T04:01:53.359Z,57.23
2023-03-21T04:04:23.100Z,57.87
2023-03-21T04:06:53.389Z,55.77
2023-03-21T04:09:31.389Z,56.70
2023-03-21T04:12:07.069Z,53.50
2023-03-21T04:14:44.149Z,53.70
2023-03-21T04:17:13.650Z,56.03
2023-03-21T04:19:41.605Z,57.33
2023-03-21T04:22:09.638Z,51.17
2023-03-21T04:24:37.682Z,54.47
2023-03-21T04:27:07.462Z,52.30
2023-03-21T04:29:35.786Z,55.50
2023-03-21T04:32:03.862Z,52.53
2023-03-21T04:34:31.975Z,53.80
2023-03-21T04:36:59.999Z,50.63
2023-03-21T04:39:28.056Z,52.20
2023-03-21T04:41:56.929Z,47.90
2023-03-21T04:44:26.524Z,46.80
2023-03-21T04:46:54.771Z,48.63
2023-03-21T04:49:23.059Z,48.33
2023-03-21T04:51:51.293Z,49.67
2023-03-21T04:54:19.305Z,49.90
2023-03-21T04:56:47.311Z,47.43
2023-03-21T04:59:17.066Z,45.93
2023-03-21T05:01:46.568Z,48.33
2023-03-21T05:04:15.739Z,47.10
2023-03-21T05:06:44.226Z,46.63
2023-03-21T05:09:13.048Z,50.17
2023-03-21T05:11:43.343Z,44.53
2023-03-21T05:14:17.475Z,45.20
2023-03-21T05:16:53.297Z,46.90
2023-03-21T05:19:22.698Z,47.43
2023-03-21T05:21:51.141Z,48.33
2023-03-21T05:24:21.925Z,44.57
2023-03-21T05:26:52.272Z,45.67
2023-03-21T05:29:21.718Z,44.60
2023-03-21T05:31:51.597Z,46.37
2023-03-21T05:34:19.643Z,46.97
2023-03-21T05:36:47.775Z,49.13
2023-03-21T05:39:15.785Z,50.47
2023-03-21T05:41:43.807Z,46.83
2023-03-21T05:44:11.955Z,48.07
2023-03-21T05:46:39.967Z,46.50
2023-03-21T05:49:13.962Z,49.83
2023-03-21T05:51:42.255Z,50.27
2023-03-21T05:54:11.090Z,52.60
2023-03-21T05:56:39.078Z,51.33
2023-03-21T05:59:07.304Z,52.53
2023-03-21T06:01:35.336Z,50.17
2023-03-21T06:04:03.386Z,48.47
2023-03-21T06:06:35.344Z,49.47
2023-03-21T06:09:03.962Z,50.30
2023-03-21T06:11:34.762Z,49.07
2023-03-21T06:14:03.276Z,49.63
2023-03-21T06:16:31.761Z,48.10
2023-03-21T06:18:59.763Z,49.17
2023-03-21T06:21:27.804Z,46.63
2023-03-21T06:23:57.185Z,48.27
2023-03-21T06:26:25.334Z,46.00
2023-03-21T06:28:54.420Z,45.70
2023-03-21T06:31:25.137Z,44.60
2023-03-21T06:33:53.822Z,45.70
2023-03-21T06:36:21.837Z,43.53
2023-03-21T06:38:49.865Z,41.83
2023-03-21T06:41:19.441Z,40.67
2023-03-21T06:43:48.447Z,41.00
2023-03-21T06:46:16.477Z,44.53
2023-03-21T06:48:45.363Z,49.70
2023-03-21T06:51:14.245Z,44.33
2023-03-21T06:53:42.519Z,45.70
2023-03-21T06:56:11.761Z,47.17
2023-03-21T06:58:41.762Z,43.70
2023-03-21T07:01:10.285Z,44.20
2023-03-21T07:03:39.473Z,42.57
2023-03-21T07:06:11.635Z,37.90
2023-03-21T07:08:40.716Z,35.23
2023-03-21T07:11:09.690Z,35.23
2023-03-21T07:13:38.030Z,37.97
2023-03-21T07:16:08.821Z,33.60
2023-03-21T07:18:36.962Z,35.83
2023-03-21T07:21:05.884Z,34.13
2023-03-21T07:23:34.375Z,30.83
2023-03-21T07:26:02.776Z,32.27
2023-03-21T07:28:31.341Z,28.67
2023-03-21T07:31:06.814Z,29.67
2023-03-21T07:33:36.848Z,26.77
2023-03-21T07:36:05.125Z,26.07
2023-03-21T07:38:34.467Z,24.47
2023-03-21T07:41:02.499Z,23.90
2023-03-21T07:43:30.531Z,27.07
2023-03-21T07:45:59.237Z,26.23
2023-03-21T07:48:27.352Z,26.03
2023-03-21T07:50:57.255Z,26.00
2023-03-21T07:53:25.349Z,27.73
2023-03-21T07:55:55.616Z,28.73
2023-03-21T07:58:24.489Z,27.33
2023-03-21T08:00:54.056Z,26.00
2023-03-21T08:03:23.928Z,24.57
2023-03-21T08:05:52.065Z,26.73
2023-03-21T08:08:21.512Z,25.90
2023-03-21T08:10:49.488Z,27.63
2023-03-21T08:13:17.569Z,28.33
2023-03-21T08:15:45.575Z,27.77
2023-03-21T08:18:15.991Z,27.70
2023-03-21T08:20:44.036Z,28.40
2023-03-21T08:23:12.015Z,25.70
2023-03-21T08:25:41.369Z,25.20
2023-03-21T08:28:09.370Z,28.60
2023-03-21T08:30:39.495Z,26.60
2023-03-21T08:33:07.571Z,25.67
2023-03-21T08:35:35.729Z,25.90
2023-03-21T08:38:04.120Z,23.50
2023-03-21T08:40:32.130Z,23.90
2023-03-21T08:43:01.525Z,20.60
2023-03-21T08:45:29.739Z,21.13
2023-03-21T08:47:58.415Z,22.43
2023-03-21T08:50:29.517Z,22.10
2023-03-21T08:52:57.531Z,26.67
2023-03-21T08:55:25.732Z,24.70
2023-03-21T08:57:56.093Z,27.80
2023-03-21T09:00:26.100Z,27.50
2023-03-21T09:02:54.555Z,27.47
2023-03-21T09:05:25.800Z,25.40
2023-03-21T09:07:54.092Z,22.20
2023-03-21T09:10:24.248Z,22.60
2023-03-21T09:12:54.299Z,21.00
2023-03-21T09:15:24.786Z,23.90
2023-03-21T09:17:55.899Z,23.93
2023-03-21T09:20:30.563Z,23.50
2023-03-21T09:22:59.705Z,23.03
2023-03-21T09:25:29.448Z,23.87
2023-03-21T09:27:58.200Z,24.07
2023-03-21T09:30:26.741Z,23.87
2023-03-21T09:32:56.907Z,21.33
2023-03-21T09:35:27.060Z,20.83
2023-03-21T09:37:57.556Z,20.10
2023-03-21T09:40:41.391Z,21.03
2023-03-21T09:43:21.873Z,20.47
2023-03-21T09:45:56.077Z,22.13
2023-03-21T09:48:39.601Z,21.70
2023-03-21T09:51:19.037Z,19.90
2023-03-21T09:53:50.190Z,20.50
2023-03-21T09:56:19.038Z,19.93
2023-03-21T09:58:53.002Z,18.97
2023-03-21T10:01:29.818Z,21.57
2023-03-21T10:04:03.363Z,20.73
2023-03-21T10:06:32.774Z,19.13
2023-03-21T10:09:07.270Z,19.50
2023-03-21T10:15:19.425Z,18.50
2023-03-21T10:17:54.144Z,21.13
2023-03-21T10:20:26.154Z,20.90
2023-03-21T10:22:56.508Z,18.80
2023-03-21T10:25:31.041Z,20.70
2023-03-21T10:28:00.536Z,20.60
2023-03-21T10:30:39.796Z,20.30
2023-03-21T10:33:12.727Z,19.23
2023-03-21T10:35:44.965Z,18.30
2023-03-21T10:38:18.245Z,18.80
2023-03-21T10:40:47.978Z,22.43
2023-03-21T10:43:22.197Z,19.40
2023-03-21T10:45:50.471Z,19.33
2023-03-21T10:48:21.237Z,20.73
2023-03-21T10:50:56.187Z,20.40
2023-03-21T10:53:30.863Z,18.97
2023-03-21T10:56:01.568Z,22.57
2023-03-21T10:58:33.350Z,19.53
2023-03-21T11:01:05.734Z,21.10
2023-03-21T11:03:38.062Z,20.30
2023-03-21T11:06:14.651Z,23.40
2023-03-21T11:08:47.132Z,24.97
2023-03-21T11:11:22.723Z,28.87
2023-03-21T11:13:59.148Z,29.87
2023-03-21T11:16:33.283Z,28.30
2023-03-21T11:19:05.318Z,28.47
2023-03-21T11:21:39.616Z,27.07
2023-03-21T11:24:11.858Z,29.20
2023-03-21T11:26:43.475Z,31.60
2023-03-21T11:29:23.651Z,30.40
2023-03-21T11:31:52.159Z,29.37
2023-03-21T11:34:28.059Z,29.03
2023-03-21T11:37:02.639Z,28.00
2023-03-21T11:39:39.649Z,25.77
2023-03-21T11:42:28.495Z,27.23
2023-03-21T11:45:04.156Z,26.20
2023-03-21T11:47:32.580Z,28.17
2023-03-21T11:50:05.288Z,32.60
2023-03-21T11:52:42.235Z,30.13
2023-03-21T11:55:25.870Z,30.23
2023-03-21T11:58:13.804Z,28.80
2023-03-21T12:00:54.698Z,25.97
2023-03-21T12:03:49.355Z,25.07
2023-03-21T12:06:26.180Z,25.10
2023-03-21T12:09:14.310Z,24.53
2023-03-21T12:11:56.683Z,25.97
2023-03-21T12:14:31.448Z,24.73
2023-03-21T12:17:07.728Z,24.53
2023-03-21T12:20:08.290Z,22.83
2023-03-21T12:22:44.119Z,21.77
2023-03-21T12:25:20.088Z,19.87
2023-03-21T12:27:56.226Z,22.17
2023-03-21T12:30:38.505Z,20.33
2023-03-21T12:33:28.047Z,19.17
2023-03-21T12:36:18.350Z,20.63
2023-03-21T12:38:55.811Z,21.17
2023-03-21T12:41:29.423Z,19.57
2023-03-21T12:44:02.260Z,21.97
2023-03-21T12:46:35.496Z,22.80
2023-03-21T12:49:08.968Z,25.83
2023-03-21T12:51:42.298Z,26.33
2023-03-21T12:54:22.407Z,27.80
2023-03-21T12:56:56.275Z,26.60
2023-03-21T12:59:36.262Z,23.40
2023-03-21T13:02:20.901Z,21.33
2023-03-21T13:05:01.496Z,21.87
2023-03-21T13:07:37.904Z,20.20
2023-03-21T13:10:15.120Z,21.93
2023-03-21T13:12:52.119Z,21.13
2023-03-21T13:15:55.192Z,20.43
2023-03-21T13:18:43.033Z,19.63
2023-03-21T13:21:17.672Z,20.53
2023-03-21T13:24:02.052Z,20.50
2023-03-21T13:26:40.838Z,21.07
2023-03-21T13:29:25.631Z,19.87
2023-03-21T13:31:57.230Z,19.80
2023-03-21T13:34:26.740Z,20.60
2023-03-21T13:36:58.212Z,22.27
2023-03-21T13:39:29.185Z,19.60
2023-03-21T13:42:06.927Z,20.83
2023-03-21T13:44:43.146Z,22.70
2023-03-21T13:47:39.707Z,22.63
2023-03-21T13:50:23.427Z,20.93
2023-03-21T13:53:24.455Z,21.43
2023-03-21T13:56:24.316Z,22.27
2023-03-21T13:58:56.050Z,20.50
2023-03-21T14:01:36.387Z,18.23
2023-03-21T14:04:12.793Z,20.77
2023-03-21T14:06:47.510Z,19.63
2023-03-21T14:09:23.673Z,21.83
2023-03-21T14:11:56.514Z,18.33
2023-03-21T14:14:27.873Z,19.87
2023-03-21T14:16:57.259Z,21.40
2023-03-21T14:19:31.193Z,21.57
2023-03-21T14:22:00.272Z,21.57
2023-03-21T14:24:31.137Z,22.80
2023-03-21T14:27:01.345Z,23.80
2023-03-21T14:29:32.803Z,22.93
2023-03-21T14:32:03.077Z,20.00
2023-03-21T14:34:34.352Z,21.40
2023-03-21T14:37:02.344Z,19.33
2023-03-21T14:39:32.007Z,17.70
2023-03-21T14:42:05.738Z,18.10
2023-03-21T14:44:53.407Z,19.03
2023-03-21T14:47:27.337Z,21.07
2023-03-21T14:49:58.149Z,17.93
2023-03-21T14:52:31.255Z,17.90
2023-03-21T14:55:00.742Z,17.80
2023-03-21T14:57:31.611Z,16.20
2023-03-21T15:00:06.149Z,14.53
2023-03-21T15:02:39.303Z,15.90
2023-03-21T15:05:11.061Z,16.23
2023-03-21T15:07:39.068Z,15.00
2023-03-21T15:10:09.524Z,15.17
2023-03-21T15:12:37.571Z,15.80
2023-03-21T15:15:06.894Z,15.77
2023-03-21T15:17:36.479Z,15.47
2023-03-21T15:20:06.863Z,16.23
2023-03-21T15:22:39.174Z,18.00
2023-03-21T15:25:10.471Z,16.70
2023-03-21T15:27:43.050Z,17.90
2023-03-21T15:30:21.302Z,15.20
2023-03-21T15:32:51.157Z,16.27
2023-03-21T15:35:23.133Z,15.97
2023-03-21T15:37:56.153Z,15.37
2023-03-21T15:40:27.524Z,16.07
2023-03-21T15:43:07.365Z,16.50
2023-03-21T15:45:35.472Z,18.70
2023-03-21T15:48:10.227Z,17.27
2023-03-21T15:50:41.062Z,20.23
2023-03-21T15:53:15.323Z,18.43
2023-03-21T15:55:48.182Z,16.60
2023-03-21T15:58:22.109Z,18.37
2023-03-21T16:00:55.108Z,19.93
2023-03-21T16:03:28.219Z,18.47
2023-03-21T16:06:10.927Z,18.93
2023-03-21T16:08:44.680Z,21.70
2023-03-21T16:11:18.887Z,22.73
2023-03-21T16:13:47.095Z,24.00
2023-03-21T16:16:18.592Z,23.37
2023-03-21T16:18:48.466Z,21.33
2023-03-21T16:21:19.355Z,21.40
2023-03-21T16:23:47.958Z,20.57
2023-03-21T16:26:19.615Z,19.30
2023-03-21T16:28:47.973Z,18.73
2023-03-21T16:31:17.977Z,19.17
2023-03-21T16:33:48.719Z,19.70
2023-03-21T16:36:19.035Z,20.70
2023-03-21T16:38:47.530Z,18.87
2023-03-21T16:41:16.792Z,19.00
2023-03-21T16:43:45.328Z,20.70
2023-03-21T16:46:14.793Z,18.03
2023-03-21T16:48:43.333Z,21.77
2023-03-21T16:51:19.245Z,19.37
2023-03-21T16:53:48.491Z,20.87
2023-03-21T16:56:18.652Z,19.00
2023-03-21T16:58:46.668Z,21.37
2023-03-21T17:01:20.965Z,21.00
2023-03-21T17:03:49.609Z,20.03
2023-03-21T17:06:21.397Z,20.37
2023-03-21T17:08:49.955Z,20.60
2023-03-21T17:11:20.477Z,21.00
2023-03-21T17:13:48.590Z,22.00
2023-03-21T17:16:20.722Z,20.37
2023-03-21T17:18:51.375Z,20.30
2023-03-21T17:21:23.304Z,19.33
2023-03-21T17:23:52.354Z,22.63
2023-03-21T17:26:22.851Z,20.97
2023-03-21T17:28:53.095Z,22.17
2023-03-21T17:31:27.485Z,20.93
2023-03-21T17:33:55.576Z,24.50
2023-03-21T17:36:31.539Z,23.93
2023-03-21T17:38:59.788Z,22.10
2023-03-21T17:41:28.098Z,21.80
2023-03-21T17:43:57.365Z,25.70
2023-03-21T17:46:27.169Z,23.23
2023-03-21T17:49:00.977Z,23.70
2023-03-21T17:51:33.009Z,24.07
2023-03-21T17:54:01.420Z,47.63
2023-03-21T17:56:31.737Z,36.70
2023-03-21T17:59:01.463Z,36.23
2023-03-21T18:01:31.824Z,32.27
2023-03-21T18:04:02.139Z,29.50
2023-03-21T18:06:33.042Z,28.97
2023-03-21T18:09:04.052Z,28.90
2023-03-21T18:11:32.223Z,30.53
2023-03-21T18:14:14.471Z,31.07
2023-03-21T18:16:43.707Z,34.80
2023-03-21T18:19:12.851Z,32.73
2023-03-21T18:21:44.781Z,31.50
2023-03-21T18:24:13.190Z,33.57
2023-03-21T18:26:41.497Z,35.97
2023-03-21T18:32:06.299Z,36.17
2023-03-21T18:34:36.543Z,40.90
2023-03-21T18:37:08.044Z,41.47
2023-03-21T18:39:38.359Z,44.60
2023-03-21T18:42:07.549Z,48.67
2023-03-21T18:44:45.404Z,47.70
2023-03-21T18:47:13.903Z,57.33
2023-03-21T18:50:13.157Z,54.50
2023-03-21T18:52:32.180Z,57.00
2023-03-21T18:55:00.509Z,60.43
2023-03-21T18:57:38.179Z,54.97
2023-03-21T19:00:12.741Z,59.47
2023-03-21T19:02:45.542Z,54.27
2023-03-21T19:05:14.535Z,53.07
2023-03-21T19:07:44.032Z,54.73
2023-03-21T19:10:17.983Z,50.87
2023-03-21T19:12:46.956Z,48.00
2023-03-21T19:15:17.770Z,49.80
2023-03-21T19:20:34.126Z,48.03
2023-03-21T19:23:03.573Z,47.60
2023-03-21T19:25:31.962Z,48.23
2023-03-21T19:28:00.066Z,46.03
2023-03-21T19:30:28.129Z,46.93
2023-03-21T19:32:58.875Z,49.40
2023-03-21T19:35:27.396Z,50.23
2023-03-21T19:37:56.615Z,48.07
2023-03-21T19:40:26.480Z,51.57
2023-03-21T19:42:54.566Z,50.07
2023-03-21T19:45:22.567Z,52.27
2023-03-21T19:47:50.847Z,50.17
2023-03-21T19:50:49.158Z,53.00
2023-03-21T19:53:10.224Z,59.57
2023-03-21T19:55:44.454Z,59.73
2023-03-21T19:58:18.127Z,53.60
2023-03-21T20:00:46.182Z,54.40
2023-03-21T20:03:14.954Z,53.50
2023-03-21T20:05:43.221Z,61.93
2023-03-21T20:08:11.372Z,60.20
2023-03-21T20:10:41.258Z,72.67
2023-03-21T20:13:09.624Z,65.20
2023-03-21T20:15:45.938Z,67.47
2023-03-21T20:18:16.355Z,63.60
2023-03-21T20:20:47.935Z,62.17
2023-03-21T20:23:16.527Z,60.07
2023-03-21T20:25:46.705Z,62.17
2023-03-21T20:28:24.355Z,62.70
2023-03-21T20:31:00.271Z,65.77
2023-03-21T20:33:28.425Z,60.07
2023-03-21T20:38:47.697Z,57.83
2023-03-21T20:41:22.049Z,55.97
2023-03-21T20:46:38.610Z,61.20
2023-03-21T20:49:07.625Z,59.87
2023-03-21T20:52:45.751Z,58.83
2023-03-21T20:54:26.635Z,60.47
2023-03-21T20:56:56.706Z,57.00
2023-03-21T20:59:29.048Z,55.87
2023-03-21T21:01:58.255Z,55.60
2023-03-21T21:04:46.714Z,56.97
2023-03-21T21:07:21.048Z,77.50
2023-03-21T21:09:49.894Z,77.10
2023-03-21T21:12:20.854Z,70.47
2023-03-21T21:14:49.372Z,73.63
2023-03-21T21:18:02.054Z,71.80
2023-03-21T21:20:16.738Z,70.63
2023-03-21T21:22:58.411Z,71.23
2023-03-21T21:25:27.649Z,67.23
2023-03-21T21:27:57.245Z,65.87
2023-03-21T21:30:25.444Z,66.40
2023-03-21T21:32:53.955Z,63.67
2023-03-21T21:35:22.382Z,62.03
2023-03-21T21:37:52.083Z,65.63
2023-03-21T21:40:23.074Z,65.13
2023-03-21T21:42:51.253Z,60.43
2023-03-21T21:45:23.388Z,65.57
2023-03-21T21:47:51.415Z,66.57
2023-03-21T21:50:22.187Z,60.60
2023-03-21T21:52:54.523Z,62.83
2023-03-21T21:55:23.350Z,61.50
2023-03-21T21:57:52.934Z,65.87
2023-03-21T22:00:23.001Z,62.07
2023-03-21T22:02:51.582Z,65.40
2023-03-21T22:05:21.421Z,63.07
2023-03-21T22:07:51.906Z,60.37
2023-03-21T22:10:20.528Z,67.33
2023-03-21T22:12:48.564Z,73.83
2023-03-21T22:15:18.165Z,73.10
2023-03-21T22:17:47.674Z,75.77
2023-03-21T22:20:18.179Z,72.23
2023-03-21T22:22:48.364Z,75.10
2023-03-21T22:25:17.987Z,74.53
2023-03-21T22:27:46.373Z,79.40
2023-03-21T22:30:19.839Z,73.83
2023-03-21T22:33:06.241Z,75.97
2023-03-21T22:35:36.410Z,75.13
2023-03-21T22:38:04.463Z,68.80
2023-03-21T22:40:32.471Z,68.60
2023-03-21T22:43:00.584Z,65.83
2023-03-21T22:45:28.652Z,68.10
2023-03-21T22:47:59.806Z,66.23
2023-03-21T22:50:28.346Z,65.50
2023-03-21T22:52:56.296Z,66.73
2023-03-21T22:55:24.296Z,68.73
2023-03-21T22:57:54.355Z,62.33
2023-03-21T23:00:22.457Z,63.40
2023-03-21T23:02:50.442Z,62.23
2023-03-21T23:05:22.572Z,63.40
2023-03-21T23:07:50.951Z,59.43
2023-03-21T23:10:19.526Z,59.80
2023-03-21T23:12:47.512Z,63.33
2023-03-21T23:15:15.620Z,60.83
2023-03-21T23:17:44.523Z,62.47
2023-03-21T23:20:12.751Z,59.90
2023-03-21T23:22:42.190Z,58.60
2023-03-21T23:25:11.936Z,55.97
2023-03-21T23:27:40.030Z,59.27
2023-03-21T23:30:09.438Z,63.90
2023-03-21T23:32:37.434Z,63.17
2023-03-21T23:35:06.466Z,62.13
2023-03-21T23:37:37.430Z,57.80
2023-03-21T23:40:09.221Z,62.07
2023-03-21T23:42:37.229Z,60.57
2023-03-21T23:45:06.505Z,61.53
2023-03-21T23:47:37.236Z,60.07
2023-03-21T23:50:07.665Z,62.20
2023-03-21T23:52:35.645Z,67.70
2023-03-21T23:55:03.745Z,59.13
2023-03-21T23:57:33.127Z,60.10
